createdAt,value
2023-01-06T00:00:26.898Z,99146.81
2023-01-06T00:02:31.915Z,99141.75
2023-01-06T00:04:37.360Z,99135.88
2023-01-06T00:06:42.685Z,99137.53
2023-01-06T00:08:47.680Z,99134.97
2023-01-06T00:10:52.936Z,99134.97
2023-01-06T00:12:57.849Z,99138.31
2023-01-06T00:15:04.065Z,99124.94
2023-01-06T00:17:11.734Z,99126.59
2023-01-06T00:19:17.004Z,99124.06
2023-01-06T00:21:22.103Z,99124.06
2023-01-06T00:23:27.057Z,99124.03
2023-01-06T00:25:32.359Z,99132.41
2023-01-06T00:27:37.283Z,99129.88
2023-01-06T00:29:43.086Z,99134.84
2023-01-06T00:31:49.347Z,99134.81
2023-01-06T00:33:58.826Z,99128.91
2023-01-06T00:36:03.956Z,99121.31
2023-01-06T00:38:09.188Z,99118.84
2023-01-06T00:40:14.848Z,99119.63
2023-01-06T00:42:22.520Z,99111.16
2023-01-06T00:44:27.831Z,99112.03
2023-01-06T00:46:34.490Z,99102.81
2023-01-06T00:48:43.130Z,99107.84
2023-01-06T00:51:02.253Z,99107.75
2023-01-06T00:53:07.185Z,99110.19
2023-01-06T00:55:12.793Z,99110.09
2023-01-06T00:57:18.145Z,99105.94
2023-01-06T00:59:25.041Z,99099.22
2023-01-06T01:01:30.417Z,99107.59
2023-01-06T01:03:37.033Z,99105.06
2023-01-06T01:05:41.939Z,99104.19
2023-01-06T01:07:49.454Z,99108.28
2023-01-06T01:09:54.612Z,99107.41
2023-01-06T01:12:15.628Z,99112.38
2023-01-06T01:14:23.691Z,99097.38
2023-01-06T01:16:28.625Z,99109.88
2023-01-06T01:18:33.546Z,99104.03
2023-01-06T01:20:38.598Z,99104.03
2023-01-06T01:22:43.522Z,99109.88
2023-01-06T01:24:51.070Z,99119.94
2023-01-06T01:26:55.995Z,99114.06
2023-01-06T01:29:03.970Z,99119.94
2023-01-06T01:31:08.999Z,99113.19
2023-01-06T01:33:13.963Z,99107.28
2023-01-06T01:35:19.132Z,99110.63
2023-01-06T01:37:24.165Z,99099.66
2023-01-06T01:39:31.625Z,99105.53
2023-01-06T01:41:39.285Z,99099.66
2023-01-06T01:43:49.312Z,99105.59
2023-01-06T01:45:58.145Z,99103.84
2023-01-06T01:48:07.127Z,99108.78
2023-01-06T01:50:29.935Z,99103.78
2023-01-06T01:52:36.132Z,99107.13
2023-01-06T01:54:41.901Z,99103.75
2023-01-06T01:56:57.282Z,99107.13
2023-01-06T01:59:08.855Z,99106.28
2023-01-06T02:01:16.329Z,99100.41
2023-01-06T02:03:23.304Z,99100.41
2023-01-06T02:05:30.798Z,99096.19
2023-01-06T02:07:37.202Z,99099.50
2023-01-06T02:09:50.942Z,99088.66
2023-01-06T02:11:59.335Z,99084.44
2023-01-06T02:14:13.316Z,99090.28
2023-01-06T02:16:25.680Z,99089.41
2023-01-06T02:18:54.786Z,99090.28
2023-01-06T02:21:22.429Z,99091.13
2023-01-06T02:23:54.636Z,99093.63
2023-01-06T02:26:52.101Z,99086.84
2023-01-06T02:29:33.088Z,99072.66
2023-01-06T02:32:03.346Z,99080.13
2023-01-06T02:34:19.659Z,99076.75
2023-01-06T02:36:40.244Z,99072.59
2023-01-06T02:39:05.175Z,99076.00
2023-01-06T02:41:30.230Z,99069.22
2023-01-06T02:43:49.184Z,99065.84
2023-01-06T02:46:10.429Z,99063.22
2023-01-06T02:48:29.491Z,99058.25
2023-01-06T02:50:43.041Z,99053.25
2023-01-06T02:52:56.474Z,99049.03
2023-01-06T02:55:06.069Z,99053.22
2023-01-06T02:57:22.156Z,99056.53
2023-01-06T02:59:34.772Z,99053.06
2023-01-06T03:01:44.903Z,99042.97
2023-01-06T03:03:54.720Z,99044.66
2023-01-06T03:06:09.135Z,99046.31
2023-01-06T03:08:20.611Z,99051.34
2023-01-06T03:10:28.286Z,99048.00
2023-01-06T03:12:46.055Z,99042.88
2023-01-06T03:14:57.765Z,99036.28
2023-01-06T03:17:02.904Z,99031.16
2023-01-06T03:19:11.191Z,99029.47
2023-01-06T03:21:19.787Z,99028.53
2023-01-06T03:23:24.844Z,99020.19
2023-01-06T03:25:30.328Z,99024.41
2023-01-06T03:27:36.884Z,99023.50
2023-01-06T03:29:42.488Z,99027.72
2023-01-06T03:32:03.340Z,99022.63
2023-01-06T03:34:23.176Z,99023.41
2023-01-06T03:36:39.996Z,99020.91
2023-01-06T03:38:59.156Z,99014.16
2023-01-06T03:41:16.510Z,99007.47
2023-01-06T03:43:28.000Z,99001.59
2023-01-06T03:45:47.085Z,99003.28
2023-01-06T03:47:59.915Z,99004.09
2023-01-06T03:50:15.152Z,98996.59
2023-01-06T03:52:29.325Z,98993.25
2023-01-06T03:54:43.747Z,98990.72
2023-01-06T03:56:57.051Z,98986.53
2023-01-06T03:59:06.075Z,98983.97
2023-01-06T04:01:12.729Z,98979.78
2023-01-06T04:03:19.629Z,98977.31
2023-01-06T04:05:30.594Z,98980.66
2023-01-06T04:07:39.521Z,98978.13
2023-01-06T04:09:44.443Z,98977.28
2023-01-06T04:12:02.098Z,98968.81
2023-01-06T04:14:09.341Z,98967.94
2023-01-06T04:16:14.239Z,98982.94
2023-01-06T04:18:19.400Z,98966.91
2023-01-06T04:20:32.176Z,98966.94
2023-01-06T04:22:44.020Z,98968.69
2023-01-06T04:24:49.193Z,98969.53
2023-01-06T04:26:54.053Z,98965.25
2023-01-06T04:29:01.347Z,98964.44
2023-01-06T04:31:12.153Z,98965.25
2023-01-06T04:33:18.020Z,98965.25
2023-01-06T04:35:28.624Z,98973.72
2023-01-06T04:37:33.641Z,98968.63
2023-01-06T04:39:38.503Z,98973.56
2023-01-06T04:41:43.896Z,98965.94
2023-01-06T04:43:48.740Z,98972.56
2023-01-06T04:45:54.191Z,98976.69
2023-01-06T04:47:59.042Z,98976.69
2023-01-06T04:50:04.756Z,98978.34
2023-01-06T04:52:13.199Z,98983.47
2023-01-06T04:54:18.829Z,98985.81
2023-01-06T04:56:26.727Z,98975.56
2023-01-06T04:58:31.777Z,98983.28
2023-01-06T05:00:37.642Z,98985.91
2023-01-06T05:02:43.024Z,98988.41
2023-01-06T05:04:48.313Z,98995.22
2023-01-06T05:06:53.566Z,98988.66
2023-01-06T05:09:01.713Z,98988.81
2023-01-06T05:11:09.604Z,98987.06
2023-01-06T05:13:14.897Z,98987.16
2023-01-06T05:15:20.565Z,98987.22
2023-01-06T05:17:25.459Z,98994.09
2023-01-06T05:19:31.325Z,98985.88
2023-01-06T05:21:36.199Z,98977.59
2023-01-06T05:23:42.670Z,98981.03
2023-01-06T05:25:53.306Z,98970.97
2023-01-06T05:27:58.352Z,98979.34
2023-01-06T05:30:03.600Z,98967.72
2023-01-06T05:32:09.769Z,98972.03
2023-01-06T05:34:14.952Z,98972.09
2023-01-06T05:36:21.778Z,98972.94
2023-01-06T05:38:27.077Z,98960.38
2023-01-06T05:40:32.685Z,98969.63
2023-01-06T05:42:40.489Z,98964.59
2023-01-06T05:44:45.309Z,98968.00
2023-01-06T05:46:51.885Z,98964.59
2023-01-06T05:48:56.754Z,98970.34
2023-01-06T05:51:05.068Z,98967.00
2023-01-06T05:53:10.480Z,98966.25
2023-01-06T05:55:15.524Z,98969.63
2023-01-06T05:57:20.407Z,98959.56
2023-01-06T05:59:28.172Z,98961.13
2023-01-06T06:01:34.744Z,98971.91
2023-01-06T06:03:40.377Z,98961.75
2023-01-06T06:05:45.259Z,98971.09
2023-01-06T06:07:56.374Z,98972.00
2023-01-06T06:10:02.388Z,98971.22
2023-01-06T06:12:08.391Z,98979.56
2023-01-06T06:14:14.275Z,98972.88
2023-01-06T06:16:26.651Z,98976.31
2023-01-06T06:18:31.519Z,98978.03
2023-01-06T06:20:36.980Z,98974.72
2023-01-06T06:22:42.588Z,98984.78
2023-01-06T06:24:47.589Z,98980.59
2023-01-06T06:26:52.436Z,98974.53
2023-01-06T06:28:58.143Z,98971.28
2023-01-06T06:31:08.717Z,98971.38
2023-01-06T06:33:16.273Z,98966.34
2023-01-06T06:35:21.219Z,98969.81
2023-01-06T06:37:26.465Z,98965.63
2023-01-06T06:39:34.060Z,98969.88
2023-01-06T06:41:38.967Z,98971.38
2023-01-06T06:43:45.788Z,98969.75
2023-01-06T06:45:51.651Z,98969.88
2023-01-06T06:47:57.149Z,98964.09
2023-01-06T06:50:04.620Z,98972.50
2023-01-06T06:52:09.521Z,98973.41
2023-01-06T06:54:14.427Z,98980.13
2023-01-06T06:56:21.742Z,98983.47
2023-01-06T06:58:27.358Z,98978.19
2023-01-06T07:00:32.207Z,98991.69
2023-01-06T07:02:37.431Z,98989.22
2023-01-06T07:04:42.334Z,98980.09
2023-01-06T07:06:49.794Z,98991.75
2023-01-06T07:08:55.105Z,98994.25
2023-01-06T07:10:59.955Z,98999.38
2023-01-06T07:13:05.182Z,99001.97
2023-01-06T07:15:11.583Z,99002.81
2023-01-06T07:17:16.763Z,99008.69
2023-01-06T07:19:22.034Z,99003.72
2023-01-06T07:21:26.945Z,99000.47
2023-01-06T07:23:34.737Z,99007.16
2023-01-06T07:25:40.335Z,99006.31
2023-01-06T07:27:45.655Z,99006.41
2023-01-06T07:29:50.520Z,99019.66
2023-01-06T07:31:55.973Z,99018.88
2023-01-06T07:34:01.129Z,99018.88
2023-01-06T07:36:06.370Z,99019.75
2023-01-06T07:38:12.536Z,99031.38
2023-01-06T07:40:20.961Z,99035.53
2023-01-06T07:42:26.151Z,99044.75
2023-01-06T07:44:32.402Z,99053.91
2023-01-06T07:46:37.272Z,99048.91
2023-01-06T07:48:42.815Z,99061.47
2023-01-06T07:50:47.974Z,99060.53
2023-01-06T07:52:52.984Z,99068.97
2023-01-06T07:54:59.441Z,99066.38
2023-01-06T07:57:07.084Z,99061.38
2023-01-06T07:59:12.441Z,99074.09
2023-01-06T08:01:17.357Z,99063.22
2023-01-06T08:03:22.805Z,99068.31
2023-01-06T08:05:28.174Z,99052.47
2023-01-06T08:07:33.443Z,99058.34
2023-01-06T08:09:38.671Z,99062.22
2023-01-06T08:11:44.332Z,99065.47
2023-01-06T08:13:52.620Z,99065.47
2023-01-06T08:15:58.309Z,99057.16
2023-01-06T08:18:03.260Z,99053.75
2023-01-06T08:20:10.107Z,99061.34
2023-01-06T08:22:15.375Z,99059.75
2023-01-06T08:24:20.239Z,99046.44
2023-01-06T08:26:25.657Z,99057.25
2023-01-06T08:28:34.251Z,99070.50
2023-01-06T08:30:42.424Z,99065.50
2023-01-06T08:32:47.281Z,99062.19
2023-01-06T08:34:52.242Z,99062.22
2023-01-06T08:37:00.147Z,99070.50
2023-01-06T08:39:05.001Z,99066.22
2023-01-06T08:41:11.029Z,99061.19
2023-01-06T08:43:16.249Z,99065.47
2023-01-06T08:45:21.678Z,99062.94
2023-01-06T08:47:30.325Z,99057.03
2023-01-06T08:49:35.410Z,99057.84
2023-01-06T08:51:40.312Z,99059.53
2023-01-06T08:53:47.268Z,99059.50
2023-01-06T08:55:52.169Z,99054.50
2023-01-06T08:57:58.936Z,99051.22
2023-01-06T09:00:04.416Z,99055.38
2023-01-06T09:02:09.425Z,99055.31
2023-01-06T09:04:17.358Z,99058.63
2023-01-06T09:06:24.977Z,99049.41
2023-01-06T09:08:29.895Z,99051.03
2023-01-06T09:10:35.072Z,99035.03
2023-01-06T09:12:41.269Z,99023.28
2023-01-06T09:14:47.431Z,99045.00
2023-01-06T09:16:52.925Z,99038.28
2023-01-06T09:18:57.831Z,99032.38
2023-01-06T09:21:06.430Z,99031.63
2023-01-06T09:23:12.087Z,99032.50
2023-01-06T09:25:18.296Z,99041.66
2023-01-06T09:27:23.528Z,99042.53
2023-01-06T09:29:28.690Z,99041.66
2023-01-06T09:31:35.322Z,99045.00
2023-01-06T09:33:40.253Z,99050.72
2023-01-06T09:35:46.552Z,99050.69
2023-01-06T09:37:54.305Z,99063.22
2023-01-06T09:39:59.294Z,99067.44
2023-01-06T09:42:34.556Z,99078.28
2023-01-06T09:44:49.259Z,99073.34
2023-01-06T09:46:55.330Z,99083.22
2023-01-06T09:49:06.175Z,99081.44
2023-01-06T09:51:22.447Z,99089.75
2023-01-06T09:53:34.817Z,99088.06
2023-01-06T09:55:45.810Z,99094.84
2023-01-06T09:57:59.991Z,99091.56
2023-01-06T10:00:08.887Z,99089.91
2023-01-06T10:02:22.117Z,99099.25
2023-01-06T10:06:40.606Z,99094.38
2023-01-06T10:09:00.432Z,99096.88
2023-01-06T10:11:17.244Z,99097.03
2023-01-06T10:13:43.343Z,99102.09
2023-01-06T10:15:58.953Z,99110.53
2023-01-06T10:18:28.292Z,99107.03
2023-01-06T10:20:52.600Z,99107.97
2023-01-06T10:23:07.173Z,99108.91
2023-01-06T10:25:22.576Z,99115.66
2023-01-06T10:27:37.791Z,99108.19
2023-01-06T10:29:44.102Z,99112.31
2023-01-06T10:31:51.748Z,99110.63
2023-01-06T10:33:59.775Z,99116.47
2023-01-06T10:36:05.051Z,99113.13
2023-01-06T10:38:15.477Z,99110.53
2023-01-06T10:40:29.847Z,99102.16
2023-01-06T10:43:03.822Z,99096.91
2023-01-06T10:45:13.425Z,99102.06
2023-01-06T10:47:27.948Z,99105.34
2023-01-06T10:49:33.445Z,99090.19
2023-01-06T10:51:42.727Z,99091.84
2023-01-06T10:53:47.952Z,99079.25
2023-01-06T10:55:58.063Z,99081.72
2023-01-06T10:58:13.172Z,99072.41
2023-01-06T11:00:22.511Z,99073.22
2023-01-06T11:02:27.481Z,99066.44
2023-01-06T11:04:32.365Z,99072.41
2023-01-06T11:06:39.061Z,99061.50
2023-01-06T11:08:44.368Z,99056.41
2023-01-06T11:10:59.036Z,99058.06
2023-01-06T11:13:06.620Z,99051.38
2023-01-06T11:15:23.633Z,99035.63
2023-01-06T11:17:29.998Z,99029.91
2023-01-06T11:19:39.684Z,99037.56
2023-01-06T11:21:46.867Z,99035.03
2023-01-06T11:23:52.374Z,99029.19
2023-01-06T11:26:18.434Z,99030.88
2023-01-06T11:28:24.127Z,99021.66
2023-01-06T11:30:31.568Z,99022.59
2023-01-06T11:32:37.730Z,99018.19
2023-01-06T11:34:46.634Z,99019.84
2023-01-06T11:36:52.990Z,99018.25
2023-01-06T11:39:01.056Z,99018.41
2023-01-06T11:41:15.510Z,99010.16
2023-01-06T11:43:25.718Z,99001.72
2023-01-06T11:45:38.350Z,99004.16
2023-01-06T11:47:43.339Z,99009.84
2023-01-06T11:49:52.775Z,98998.66
2023-01-06T11:52:05.385Z,99012.81
2023-01-06T11:54:30.382Z,99009.47
2023-01-06T11:56:38.948Z,99014.56
2023-01-06T11:58:56.277Z,99009.56
2023-01-06T12:01:07.963Z,99012.91
2023-01-06T12:03:23.666Z,99006.28
2023-01-06T12:05:37.672Z,98999.56
2023-01-06T12:07:51.096Z,99011.31
2023-01-06T12:10:00.743Z,99012.09
2023-01-06T12:12:13.571Z,99008.06
2023-01-06T12:14:28.868Z,99006.41
2023-01-06T12:16:41.858Z,99012.22
2023-01-06T12:18:47.111Z,99017.25
2023-01-06T12:20:55.301Z,99014.75
2023-01-06T12:23:04.766Z,99018.00
2023-01-06T12:25:18.267Z,99009.38
2023-01-06T12:27:36.896Z,99001.09
2023-01-06T12:29:42.160Z,99007.97
2023-01-06T12:31:56.464Z,99002.94
2023-01-06T12:34:06.217Z,99009.66
2023-01-06T12:36:19.488Z,99010.50
2023-01-06T12:38:36.065Z,99006.25
2023-01-06T12:40:48.791Z,98996.19
2023-01-06T12:43:06.247Z,99002.91
2023-01-06T12:45:20.647Z,99007.22
2023-01-06T12:47:36.261Z,99014.03
2023-01-06T12:49:46.736Z,99009.84
2023-01-06T12:51:55.671Z,99007.84
2023-01-06T12:54:11.286Z,99000.16
2023-01-06T12:56:51.027Z,98997.81
2023-01-06T12:59:15.099Z,98998.81
2023-01-06T13:01:30.324Z,99000.31
2023-01-06T13:04:06.704Z,99017.13
2023-01-06T13:06:26.794Z,99002.91
2023-01-06T13:08:58.059Z,98999.44
2023-01-06T13:11:17.251Z,98997.66
2023-01-06T13:13:41.747Z,99007.00
2023-01-06T13:15:49.893Z,99017.72
2023-01-06T13:18:09.580Z,99022.63
2023-01-06T13:20:22.999Z,99017.59
2023-01-06T13:22:43.213Z,99022.78
2023-01-06T13:25:19.797Z,99021.09
2023-01-06T13:27:42.603Z,99023.03
2023-01-06T13:30:05.772Z,99018.94
2023-01-06T13:32:32.456Z,99016.47
2023-01-06T13:35:10.258Z,99014.88
2023-01-06T13:37:38.429Z,99012.50
2023-01-06T13:39:48.027Z,99012.50
2023-01-06T13:41:59.369Z,99006.72
2023-01-06T13:44:06.132Z,99021.00
2023-01-06T13:46:17.497Z,99018.66
2023-01-06T13:48:31.651Z,99025.34
2023-01-06T13:50:37.192Z,99020.44
2023-01-06T13:52:44.417Z,99022.91
2023-01-06T13:55:09.081Z,99027.94
2023-01-06T13:57:32.219Z,99012.03
2023-01-06T13:59:51.881Z,99022.00
2023-01-06T14:01:59.771Z,99024.50
2023-01-06T14:04:52.936Z,99015.22
2023-01-06T14:07:01.431Z,99019.38
2023-01-06T14:09:06.741Z,99023.59
2023-01-06T14:11:31.604Z,99028.59
2023-01-06T14:13:44.057Z,99020.31
2023-01-06T14:15:58.089Z,99022.91
2023-01-06T14:18:04.449Z,99015.38
2023-01-06T14:20:26.697Z,99025.44
2023-01-06T14:22:35.282Z,99018.81
2023-01-06T14:24:46.052Z,99022.16
2023-01-06T14:26:59.603Z,99020.41
2023-01-06T14:29:50.190Z,99037.09
2023-01-06T14:31:55.151Z,99039.56
2023-01-06T14:34:02.787Z,99042.00
2023-01-06T14:36:15.018Z,99039.44
2023-01-06T14:38:29.587Z,99041.06
2023-01-06T14:40:41.203Z,99039.34
2023-01-06T14:42:49.154Z,99034.31
2023-01-06T14:44:58.248Z,99035.72
2023-01-06T14:47:07.840Z,99037.47
2023-01-06T14:49:20.690Z,99037.63
2023-01-06T14:51:26.768Z,99037.00
2023-01-06T14:53:41.988Z,99043.84
2023-01-06T14:55:51.767Z,99047.31
2023-01-06T14:57:56.851Z,99048.91
2023-01-06T15:00:19.185Z,99048.91
2023-01-06T15:02:26.257Z,99048.03
2023-01-06T15:04:34.552Z,99051.38
2023-01-06T15:06:39.670Z,99046.34
2023-01-06T15:08:47.359Z,99052.97
2023-01-06T15:10:54.076Z,99043.69
2023-01-06T15:12:59.609Z,99049.56
2023-01-06T15:15:18.199Z,99053.69
2023-01-06T15:17:24.696Z,99054.59
2023-01-06T15:19:30.834Z,99057.91
2023-01-06T15:21:41.967Z,99053.81
2023-01-06T15:23:52.208Z,99057.34
2023-01-06T15:25:59.072Z,99048.28
2023-01-06T15:28:04.088Z,99045.94
2023-01-06T15:30:20.492Z,99049.31
2023-01-06T15:32:29.327Z,99048.44
2023-01-06T15:34:40.417Z,99046.78
2023-01-06T15:36:47.336Z,99053.47
2023-01-06T15:38:56.005Z,99061.00
2023-01-06T15:41:01.155Z,99061.78
2023-01-06T15:43:09.634Z,99058.44
2023-01-06T15:45:29.275Z,99058.41
2023-01-06T15:47:39.940Z,99056.75
2023-01-06T15:49:52.740Z,99059.31
2023-01-06T15:52:04.905Z,99062.81
2023-01-06T15:54:17.344Z,99061.22
2023-01-06T15:56:25.698Z,99060.50
2023-01-06T15:58:35.890Z,99061.25
2023-01-06T16:00:50.428Z,99054.63
2023-01-06T16:02:56.116Z,99065.50
2023-01-06T16:05:02.479Z,99067.16
2023-01-06T16:07:37.113Z,99066.25
2023-01-06T16:09:45.105Z,99072.81
2023-01-06T16:11:58.819Z,99072.72
2023-01-06T16:14:04.482Z,99072.72
2023-01-06T16:16:26.873Z,99071.91
2023-01-06T16:18:35.709Z,99073.53
2023-01-06T16:20:40.667Z,99077.59
2023-01-06T16:22:54.468Z,99079.22
2023-01-06T16:25:04.496Z,99075.84
2023-01-06T16:27:10.066Z,99074.25
2023-01-06T16:29:30.217Z,99077.53
2023-01-06T16:31:38.843Z,99080.94
2023-01-06T16:33:47.260Z,99085.97
2023-01-06T16:35:55.139Z,99080.94
2023-01-06T16:38:00.888Z,99082.63
2023-01-06T16:40:10.377Z,99095.25
2023-01-06T16:42:43.119Z,99090.25
2023-01-06T16:44:48.081Z,99094.38
2023-01-06T16:46:53.220Z,99094.34
2023-01-06T16:48:59.779Z,99101.03
2023-01-06T16:51:04.789Z,99094.34
2023-01-06T16:53:18.845Z,99101.88
2023-01-06T16:55:26.645Z,99102.72
2023-01-06T16:57:31.640Z,99096.03
2023-01-06T16:59:38.682Z,99098.53
2023-01-06T17:01:44.457Z,99095.19
2023-01-06T17:03:57.624Z,99097.69
2023-01-06T17:06:02.581Z,99096.00
2023-01-06T17:08:14.733Z,99088.53
2023-01-06T17:10:24.198Z,99078.69
2023-01-06T17:12:45.621Z,99074.63
2023-01-06T17:14:50.620Z,99073.09
2023-01-06T17:16:55.663Z,99076.50
2023-01-06T17:19:04.608Z,99084.97
2023-01-06T17:21:17.559Z,99081.66
2023-01-06T17:23:22.587Z,99084.25
2023-01-06T17:25:30.873Z,99085.16
2023-01-06T17:27:38.437Z,99086.94
2023-01-06T17:29:43.456Z,99090.44
2023-01-06T17:31:51.693Z,99083.69
2023-01-06T17:33:58.096Z,99087.06
2023-01-06T17:36:03.522Z,99087.91
2023-01-06T17:38:18.776Z,99081.19
2023-01-06T17:40:31.145Z,99081.22
2023-01-06T17:42:38.800Z,99082.91
2023-01-06T17:44:47.982Z,99083.63
2023-01-06T17:46:53.575Z,99086.06
2023-01-06T17:49:05.948Z,99086.00
2023-01-06T17:51:14.725Z,99085.09
2023-01-06T17:53:34.737Z,99074.94
2023-01-06T17:55:48.344Z,99083.19
2023-01-06T17:57:59.486Z,99078.03
2023-01-06T18:00:05.369Z,99081.34
2023-01-06T18:02:30.806Z,99083.84
2023-01-06T18:04:36.593Z,99089.63
2023-01-06T18:06:42.817Z,99092.13
2023-01-06T18:08:48.509Z,99091.38
2023-01-06T18:10:56.826Z,99094.81
2023-01-06T18:13:17.012Z,99100.72
2023-01-06T18:15:33.087Z,99092.34
2023-01-06T18:17:40.069Z,99098.22
2023-01-06T18:19:45.033Z,99099.97
2023-01-06T18:21:50.062Z,99101.69
2023-01-06T18:23:56.387Z,99106.72
2023-01-06T18:26:08.468Z,99109.28
2023-01-06T18:28:21.707Z,99108.47
2023-01-06T18:30:29.203Z,99106.00
2023-01-06T18:32:36.038Z,99112.72
2023-01-06T18:34:45.753Z,99111.88
2023-01-06T18:36:50.839Z,99107.81
2023-01-06T18:38:55.802Z,99106.09
2023-01-06T18:41:00.724Z,99121.97
2023-01-06T18:43:26.128Z,99118.44
2023-01-06T18:45:36.270Z,99115.00
2023-01-06T18:47:45.313Z,99109.94
2023-01-06T18:49:52.329Z,99113.22
2023-01-06T18:51:57.573Z,99113.19
2023-01-06T18:54:02.570Z,99114.03
2023-01-06T18:56:16.005Z,99108.09
2023-01-06T18:58:47.050Z,99113.00
2023-01-06T19:00:56.304Z,99107.19
2023-01-06T19:03:20.838Z,99112.97
2023-01-06T19:05:26.421Z,99112.97
2023-01-06T19:07:32.071Z,99107.06
2023-01-06T19:09:40.964Z,99111.22
2023-01-06T19:11:47.605Z,99111.22
2023-01-06T19:14:00.902Z,99113.75
2023-01-06T19:16:29.755Z,99112.91
2023-01-06T19:18:37.283Z,99118.66
2023-01-06T19:20:42.444Z,99114.38
2023-01-06T19:22:48.888Z,99116.13
2023-01-06T19:25:03.367Z,99110.34
2023-01-06T19:27:25.771Z,99117.16
2023-01-06T19:29:36.171Z,99110.47
2023-01-06T19:31:49.221Z,99121.34
2023-01-06T19:33:59.842Z,99114.66
2023-01-06T19:36:47.188Z,99120.53
2023-01-06T19:38:52.674Z,99126.28
2023-01-06T19:41:00.093Z,99119.56
2023-01-06T19:43:15.766Z,99110.41
2023-01-06T19:45:34.960Z,99115.44
2023-01-06T19:47:42.650Z,99121.34
2023-01-06T19:49:52.954Z,99121.34
2023-01-06T19:51:58.127Z,99125.50
2023-01-06T19:54:06.973Z,99122.91
2023-01-06T19:56:26.225Z,99122.91
2023-01-06T19:58:38.352Z,99132.03
2023-01-06T20:00:50.960Z,99127.78
2023-01-06T20:03:00.292Z,99127.00
2023-01-06T20:05:05.286Z,99126.03
2023-01-06T20:07:10.672Z,99126.88
2023-01-06T20:09:15.637Z,99131.91
2023-01-06T20:11:20.617Z,99133.66
2023-01-06T20:13:25.678Z,99132.78
2023-01-06T20:15:30.620Z,99132.72
2023-01-06T20:17:38.166Z,99134.44
2023-01-06T20:19:45.129Z,99131.88
2023-01-06T20:21:51.660Z,99125.94
2023-01-06T20:23:56.822Z,99122.75
2023-01-06T20:26:02.811Z,99122.88
2023-01-06T20:28:08.288Z,99126.25
2023-01-06T20:30:14.348Z,99129.50
2023-01-06T20:32:19.776Z,99122.88
2023-01-06T20:34:28.694Z,99126.25
2023-01-06T20:36:33.755Z,99123.66
2023-01-06T20:38:38.735Z,99118.69
2023-01-06T20:40:43.668Z,99124.50
2023-01-06T20:42:48.861Z,99117.88
2023-01-06T20:44:54.682Z,99121.16
2023-01-06T20:46:59.611Z,99117.84
2023-01-06T20:49:04.556Z,99122.00
2023-01-06T20:51:12.091Z,99128.69
2023-01-06T20:53:17.219Z,99122.81
2023-01-06T20:55:22.281Z,99131.13
2023-01-06T20:57:27.960Z,99127.84
2023-01-06T20:59:32.870Z,99132.94
2023-01-06T21:01:37.954Z,99121.28
2023-01-06T21:03:42.889Z,99131.31
2023-01-06T21:05:47.828Z,99126.31
2023-01-06T21:07:55.412Z,99133.91
2023-01-06T21:10:00.418Z,99131.34
2023-01-06T21:12:05.472Z,99140.59
2023-01-06T21:14:10.581Z,99138.09
2023-01-06T21:16:15.686Z,99129.69
2023-01-06T21:18:20.649Z,99123.06
2023-01-06T21:20:25.595Z,99124.78
2023-01-06T21:22:30.530Z,99128.19
2023-01-06T21:24:38.747Z,99129.78
2023-01-06T21:26:43.693Z,99124.03
2023-01-06T21:28:48.659Z,99125.72
2023-01-06T21:30:53.683Z,99125.72
2023-01-06T21:32:58.661Z,99125.69
2023-01-06T21:35:04.045Z,99126.53
2023-01-06T21:37:10.078Z,99130.72
2023-01-06T21:39:15.285Z,99124.84
2023-01-06T21:41:35.356Z,99119.00
2023-01-06T21:43:40.270Z,99114.81
2023-01-06T21:45:48.027Z,99121.50
2023-01-06T21:47:53.001Z,99111.44
2023-01-06T21:49:57.973Z,99128.22
2023-01-06T21:52:05.685Z,99115.72
2023-01-06T21:54:10.807Z,99118.31
2023-01-06T21:56:15.845Z,99114.13
2023-01-06T21:58:23.365Z,99115.84
2023-01-06T22:00:28.425Z,99115.88
2023-01-06T22:02:33.512Z,99111.66
2023-01-06T22:04:38.754Z,99121.72
2023-01-06T22:06:46.961Z,99125.06
2023-01-06T22:08:54.124Z,99117.50
2023-01-06T22:10:59.287Z,99120.03
2023-01-06T22:13:05.077Z,99121.66
2023-01-06T22:15:15.063Z,99125.00
2023-01-06T22:17:20.602Z,99121.66
2023-01-06T22:19:27.359Z,99124.22
2023-01-06T22:21:32.391Z,99123.31
2023-01-06T22:23:37.894Z,99124.16
2023-01-06T22:25:43.032Z,99122.41
2023-01-06T22:27:47.951Z,99126.59
2023-01-06T22:29:53.338Z,99132.41
2023-01-06T22:32:04.842Z,99124.91
2023-01-06T22:34:10.315Z,99123.25
2023-01-06T22:36:15.240Z,99124.94
2023-01-06T22:38:20.190Z,99130.78
2023-01-06T22:40:25.463Z,99125.75
2023-01-06T22:42:30.384Z,99129.03
2023-01-06T22:44:35.287Z,99129.03
2023-01-06T22:46:40.296Z,99116.47
2023-01-06T22:48:47.921Z,99117.31
2023-01-06T22:51:00.143Z,99118.97
2023-01-06T22:53:05.066Z,99123.19
2023-01-06T22:55:11.863Z,99122.28
2023-01-06T22:57:16.865Z,99124.00
2023-01-06T22:59:21.840Z,99124.91
2023-01-06T23:01:26.962Z,99129.03
2023-01-06T23:03:32.473Z,99136.50
2023-01-06T23:05:40.401Z,99134.84
2023-01-06T23:07:46.891Z,99133.16
2023-01-06T23:09:51.873Z,99139.78
2023-01-06T23:11:57.129Z,99138.13
2023-01-06T23:14:02.662Z,99139.84
2023-01-06T23:16:11.455Z,99138.19
2023-01-06T23:18:16.421Z,99134.81
2023-01-06T23:20:21.401Z,99138.09
2023-01-06T23:22:28.957Z,99133.84
2023-01-06T23:24:33.897Z,99138.94
2023-01-06T23:26:43.269Z,99121.38
2023-01-06T23:28:48.841Z,99131.44
2023-01-06T23:30:53.806Z,99133.22
2023-01-06T23:32:58.905Z,99130.63
2023-01-06T23:35:04.648Z,99138.19
2023-01-06T23:37:09.605Z,99130.66
2023-01-06T23:39:19.593Z,99134.84
2023-01-06T23:41:28.152Z,99143.19
2023-01-06T23:43:35.661Z,99141.53
2023-01-06T23:45:40.610Z,99144.88
2023-01-06T23:47:45.552Z,99145.69
2023-01-06T23:49:50.855Z,99139.88
2023-01-06T23:51:55.779Z,99143.28
2023-01-06T23:54:01.312Z,99134.91
2023-01-06T23:56:12.888Z,99133.22
2023-01-06T23:58:17.834Z,99131.53
